• Join FlightAware (Why Join?)
  • Login
  • US Flag 
01:17AM EDT


 

Airport Tracker/Info


-or-


 

Live Flight TrackerFlight Track Log ✈ ASQ5421 ✈ 03-May-2013 ✈ KATL - KGNV

Flight Track Log - Related Links

Times and Time Zones

All times are in EDT time to prevent confusion due to time zone crossing. See the ASQ5421 flight status page for this flight to view local times or setup timezone preferences in your user account.

Time Position Orientation Groundspeed Altitude Reporting Facility
EDT Latitude Longitude Course Direction KTS MPH feet Rate Location/Type
10:47AM 33.6333 -84.4167 107° East 162 186 2,000  Level Atlanta TRACON
10:48AM 33.6167 -84.3500 107° East 226 260 4,200 2,400 Climbing Atlanta TRACON
10:49AM 33.5833 -84.2833 121° Southeast 245 282 6,900 2,040 Climbing Atlanta TRACON
10:51AM 33.4600 -84.2778 178° South 286 329 10,000 1,440 Climbing Atlanta Center
10:52AM 33.3850 -84.2750 178° South 286 329 11,100 1,260 Climbing Atlanta Center
10:53AM 33.2972 -84.2525 168° South 306 352 12,600 1,440 Climbing Atlanta Center
10:54AM 33.2056 -84.2275 167° South 330 380 14,000 1,500 Climbing Atlanta Center
10:55AM 33.0992 -84.2000 168° South 343 395 15,600 1,560 Climbing Atlanta Center
10:56AM 33.0011 -84.1725 167° South 354 407 17,200 1,380 Climbing Atlanta Center
10:57AM 32.9072 -84.1378 163° South 354 407 18,400 1,080 Climbing Atlanta Center
10:58AM 32.8111 -84.0981 161° South 359 413 19,400 960 Climbing Atlanta Center
10:59AM 32.7108 -84.0586 162° South 364 419 20,400 960 Climbing Atlanta Center
11:00AM 32.6108 -84.0167 161° South 374 430 21,400 960 Climbing Atlanta Center
11:01AM 32.5083 -83.9747 161° South 380 437 22,400 960 Climbing Atlanta Center
11:02AM 32.4061 -83.9306 160° South 385 443 23,400 1,020 Climbing Atlanta Center
11:03AM 32.3058 -83.8914 162° South 385 443 24,500 840 Climbing Atlanta Center
11:04AM 32.2036 -83.8500 161° South 385 443 25,100 540 Climbing Atlanta Center
11:05AM 32.1033 -83.8083 161° South 385 443 25,600 480 Climbing Atlanta Center
11:06AM 31.9967 -83.7644 161° South 385 443 26,100 420 Climbing Atlanta Center
11:07AM 31.8986 -83.7222 160° South 390 449 26,500 420 Climbing Jacksonville Center
11:08AM 31.7925 -83.6797 161° South 408 470 27,000 480 Climbing Jacksonville Center
11:09AM 31.6861 -83.6347 160° South 413 475 27,500 540 Climbing Jacksonville Center
11:10AM 31.5736 -83.5947 163° South 413 475 28,100 540 Climbing Jacksonville Center
11:11AM 31.4653 -83.5528 162° South 413 475 28,600 420 Climbing Jacksonville Center
11:12AM 31.3569 -83.5081 161° South 413 475 29,000 180 Climbing Jacksonville Center
11:13AM 31.2467 -83.4661 162° South 413 475 29,000  Level Jacksonville Center
11:14AM 31.1339 -83.4192 160° South 418 481 29,000  Level Jacksonville Center
11:15AM 31.0319 -83.3436 148° Southeast 424 488 29,000  Level Jacksonville Center
11:16AM 30.9300 -83.2608 145° Southeast 434 499 29,000 -480 Level Jacksonville Center
11:17AM 30.8300 -83.1781 145° Southeast 439 505 28,100 -1,680 Descending Jacksonville Center
11:18AM 30.7300 -83.0956 145° Southeast 444 511 25,700 -2,100 Descending Jacksonville Center
11:19AM 30.6297 -83.0158 146° Southeast 444 511 24,000 -1,500 Descending Jacksonville Center
11:20AM 30.5317 -82.9383 146° Southeast 444 511 22,800 -2,100 Descending Jacksonville Center
11:21AM 30.4356 -82.8611 145° Southeast 433 498 19,800 -3,060 Descending Jacksonville Center
11:22AM 30.3417 -82.7867 146° Southeast 427 491 16,700 -3,120 Descending Jacksonville Center
11:23AM 30.3125 -82.7650 147° Southeast 386 444 15,600 -2,640 Descending Jacksonville Center
11:23AM 30.2603 -82.7219 145° Southeast 391 450 14,100 -2,520 Descending Jacksonville Center
11:24AM 30.2119 -82.6858 147° Southeast 312 359 12,300 -2,520 Descending Jacksonville Center
11:24AM 30.1892 -82.6642 141° Southeast 346 398 11,600 -1,680 Descending Jacksonville Center
11:25AM 30.1347 -82.6261 149° Southeast 296 341 10,600 -1,320 Descending Jacksonville Center
11:25AM 30.1222 -82.6117 135° Southeast 312 359 10,300 -1,020 Descending Jacksonville Center
11:26AM 30.0700 -82.5831 155° Southeast 279 321 9,600 -900 Descending Jacksonville Center
11:26AM 30.0511 -82.5758 162° South 287 330 9,400 -1,200 Descending Jacksonville Center
11:27AM 29.9947 -82.5689 174° South 276 318 8,400 -1,500 Descending Jacksonville Center
11:27AM 29.9758 -82.5642 168° South 278 320 7,900 -1,800 Descending Jacksonville Center
11:28AM 29.9236 -82.5547 171° South 252 290 6,600 -1,920 Descending Jacksonville Center
11:28AM 29.9069 -82.5450 153° Southeast 273 314 6,000 -2,280 Descending Jacksonville Center
11:29AM 29.8483 -82.5261 164° South 236 272 4,100 -1,680 Descending Jacksonville Center
11:30AM 29.7961 -82.5097 165° South 212 244 3,100 -540 Descending Jacksonville Center
11:31AM 29.7481 -82.4906 161° South 177 204 3,100 -540 Level Jacksonville Center
11:32AM 29.7208 -82.4597 135° Southeast 142 163 2,100 -1,080 Descending Jacksonville Center
11:32AM 29.7228 -82.4453 81° East 147 169 1,800 -300 Descending Jacksonville Center
11:33AM 29.7122 -82.4144 112° Southeast 135 155 1,800 -60 Level Jacksonville Center
11:34AM 29.7058 -82.3736 100° East 135 155 1,700 -360 Descending Jacksonville Center
11:35AM 29.6994 -82.3331 100° East 124 143 1,100 -600 Descending Jacksonville Center